createdAt,value
2018-12-12T00:01:04.547Z,0
2018-12-12T00:02:13.219Z,0
2018-12-12T00:03:21.877Z,0
2018-12-12T00:04:30.549Z,0
2018-12-12T00:05:39.225Z,0
2018-12-12T00:06:47.910Z,0
2018-12-12T00:07:56.582Z,0
2018-12-12T00:09:05.251Z,0
2018-12-12T00:10:13.928Z,0
2018-12-12T00:11:22.596Z,0
2018-12-12T00:12:31.275Z,0
2018-12-12T00:13:39.938Z,0
2018-12-12T00:14:48.601Z,0
2018-12-12T00:15:57.269Z,0
2018-12-12T00:17:05.942Z,0
2018-12-12T00:18:14.606Z,0
2018-12-12T00:19:23.290Z,0
2018-12-12T00:20:31.959Z,0
2018-12-12T00:21:40.631Z,0
2018-12-12T00:22:49.294Z,0
2018-12-12T00:23:57.960Z,0
2018-12-12T00:25:06.631Z,0
2018-12-12T00:26:15.553Z,0
2018-12-12T00:27:24.226Z,0
2018-12-12T00:28:32.920Z,0
2018-12-12T00:29:41.586Z,0
2018-12-12T00:30:50.254Z,0
2018-12-12T00:31:58.923Z,0
2018-12-12T00:33:07.599Z,0
2018-12-12T00:34:16.269Z,0
2018-12-12T00:35:24.929Z,0
2018-12-12T00:36:33.600Z,0
2018-12-12T00:37:42.265Z,0
2018-12-12T00:38:50.937Z,0
2018-12-12T00:39:59.606Z,0
2018-12-12T00:41:08.304Z,0
2018-12-12T00:42:17.845Z,0
2018-12-12T00:43:26.603Z,0
2018-12-12T00:44:35.285Z,0
2018-12-12T00:45:43.954Z,0
2018-12-12T00:46:52.618Z,0
2018-12-12T00:48:01.292Z,0
2018-12-12T00:49:09.965Z,0
2018-12-12T00:50:18.623Z,0
2018-12-12T00:51:27.294Z,0
2018-12-12T00:52:35.961Z,0
2018-12-12T00:53:44.639Z,0
2018-12-12T00:54:53.297Z,0
2018-12-12T00:56:01.971Z,0
2018-12-12T00:57:10.635Z,0
2018-12-12T00:58:19.314Z,0
2018-12-12T00:59:27.978Z,0
2018-12-12T01:00:36.649Z,0
2018-12-12T01:01:45.316Z,0
2018-12-12T01:02:53.979Z,0
2018-12-12T01:04:02.659Z,0
2018-12-12T01:05:11.579Z,0
2018-12-12T01:06:20.245Z,0
2018-12-12T01:07:28.906Z,0
2018-12-12T01:08:37.591Z,0
2018-12-12T01:09:46.261Z,0
2018-12-12T01:10:54.953Z,0
2018-12-12T01:12:03.863Z,0
2018-12-12T01:13:12.537Z,0
2018-12-12T01:14:21.338Z,0
2018-12-12T01:15:30.007Z,0
2018-12-12T01:16:38.662Z,0
2018-12-12T01:17:47.335Z,0
2018-12-12T01:18:56.013Z,0
2018-12-12T01:20:04.687Z,0
2018-12-12T01:21:13.357Z,0
2018-12-12T01:22:22.021Z,0
2018-12-12T01:23:30.947Z,0
2018-12-12T01:24:39.620Z,0
2018-12-12T01:25:48.548Z,0
2018-12-12T01:26:57.206Z,0
2018-12-12T01:28:05.887Z,0
2018-12-12T01:29:14.547Z,0
2018-12-12T01:30:23.216Z,0
2018-12-12T01:31:31.872Z,0
2018-12-12T01:32:40.541Z,0
2018-12-12T01:33:49.209Z,0
2018-12-12T01:34:58.135Z,0
2018-12-12T01:36:06.797Z,0
2018-12-12T01:37:15.460Z,0
2018-12-12T01:38:24.391Z,0
2018-12-12T01:39:33.063Z,0
2018-12-12T01:40:41.739Z,0
2018-12-12T01:41:50.404Z,0
2018-12-12T01:42:59.077Z,0
2018-12-12T01:44:07.734Z,0
2018-12-12T01:45:16.409Z,0
2018-12-12T01:46:25.071Z,0
2018-12-12T01:47:33.742Z,0
2018-12-12T01:48:42.655Z,0
2018-12-12T01:49:51.336Z,0
2018-12-12T01:51:00.004Z,0
2018-12-12T01:52:08.668Z,0
2018-12-12T01:53:17.318Z,0
2018-12-12T01:54:25.985Z,0
2018-12-12T01:55:34.918Z,0
2018-12-12T01:56:43.591Z,0
2018-12-12T01:57:52.261Z,0
2018-12-12T01:59:00.922Z,0
2018-12-12T02:00:09.596Z,0
2018-12-12T02:01:18.261Z,0
2018-12-12T02:02:26.946Z,0
2018-12-12T02:03:35.859Z,0
2018-12-12T02:04:44.525Z,0
2018-12-12T02:05:53.183Z,0
2018-12-12T02:07:02.114Z,0
2018-12-12T02:08:10.774Z,0
2018-12-12T02:09:19.483Z,0
2018-12-12T02:10:28.146Z,0
2018-12-12T02:11:36.833Z,0
2018-12-12T02:12:45.496Z,0
2018-12-12T02:13:54.161Z,0
2018-12-12T02:15:02.825Z,0
2018-12-12T02:16:11.495Z,0
2018-12-12T02:17:20.172Z,0
2018-12-12T02:18:28.840Z,0
2018-12-12T02:19:37.507Z,0
2018-12-12T02:20:46.169Z,0
2018-12-12T02:21:54.860Z,0
2018-12-12T02:23:03.525Z,0
2018-12-12T02:24:12.195Z,0
2018-12-12T02:25:20.857Z,0
2018-12-12T02:26:29.535Z,0
2018-12-12T02:27:38.197Z,0
2018-12-12T02:28:46.871Z,0
2018-12-12T02:29:55.532Z,0
2018-12-12T02:31:04.205Z,0
2018-12-12T02:32:13.136Z,0
2018-12-12T02:33:22.335Z,0
2018-12-12T02:34:31.023Z,0
2018-12-12T02:35:39.947Z,0
2018-12-12T02:36:48.626Z,0
2018-12-12T02:37:57.306Z,0
2018-12-12T02:39:05.975Z,0
2018-12-12T02:40:14.651Z,0
2018-12-12T02:41:23.316Z,0
2018-12-12T02:42:31.987Z,0
2018-12-12T02:43:40.921Z,0
2018-12-12T02:44:49.840Z,0
2018-12-12T02:45:58.511Z,0
2018-12-12T02:47:07.212Z,0
2018-12-12T02:48:16.139Z,0
2018-12-12T02:49:24.806Z,0
2018-12-12T02:50:33.731Z,0
2018-12-12T02:51:42.657Z,0
2018-12-12T02:52:51.335Z,0
2018-12-12T02:54:00.020Z,0
2018-12-12T02:55:08.707Z,0
2018-12-12T02:56:17.376Z,0
2018-12-12T02:57:26.043Z,0
2018-12-12T02:58:34.987Z,0
2018-12-12T02:59:43.916Z,0
2018-12-12T03:00:52.850Z,0
2018-12-12T03:02:01.766Z,0
2018-12-12T03:03:10.440Z,0
2018-12-12T03:04:19.115Z,0
2018-12-12T03:05:27.789Z,0
2018-12-12T03:06:36.792Z,0
2018-12-12T03:07:45.548Z,0
2018-12-12T03:08:54.465Z,0
2018-12-12T03:10:03.133Z,0
2018-12-12T03:11:11.808Z,0
2018-12-12T03:12:20.761Z,0
2018-12-12T03:13:29.493Z,0
2018-12-12T03:14:38.448Z,0
2018-12-12T03:15:47.650Z,0
2018-12-12T03:16:56.347Z,0
2018-12-12T03:18:05.018Z,0
2018-12-12T03:19:13.957Z,0
2018-12-12T03:20:23.149Z,0
2018-12-12T03:21:31.825Z,0
2018-12-12T03:22:40.486Z,0
2018-12-12T03:23:49.156Z,0
2018-12-12T03:24:57.879Z,0
2018-12-12T03:26:06.561Z,0
2018-12-12T03:27:15.243Z,0
2018-12-12T03:28:23.910Z,0
2018-12-12T03:29:32.580Z,0
2018-12-12T03:30:41.739Z,0
2018-12-12T03:31:50.688Z,0
2018-12-12T03:32:59.390Z,0
2018-12-12T03:34:08.330Z,0
2018-12-12T03:35:16.988Z,0
2018-12-12T03:36:25.653Z,0
2018-12-12T03:37:34.323Z,0
2018-12-12T03:38:42.996Z,0
2018-12-12T03:39:51.745Z,0
2018-12-12T03:41:00.431Z,0
2018-12-12T03:42:09.355Z,0
2018-12-12T03:43:18.275Z,0
2018-12-12T03:44:26.953Z,0
2018-12-12T03:45:35.622Z,0
2018-12-12T03:46:44.546Z,0
2018-12-12T03:47:53.226Z,0
2018-12-12T03:49:02.163Z,0
2018-12-12T03:50:10.853Z,0
2018-12-12T03:51:19.536Z,0
2018-12-12T03:52:28.452Z,0
2018-12-12T03:53:37.125Z,0
2018-12-12T03:54:45.799Z,0
2018-12-12T03:55:54.726Z,0
2018-12-12T03:57:03.388Z,0
2018-12-12T03:58:12.589Z,0
2018-12-12T03:59:21.250Z,0
2018-12-12T04:00:29.930Z,0
2018-12-12T04:01:38.591Z,0
2018-12-12T04:02:47.307Z,0
2018-12-12T04:03:55.972Z,0
2018-12-12T04:05:05.155Z,0
2018-12-12T04:06:14.130Z,0
2018-12-12T04:07:23.042Z,0
2018-12-12T04:08:31.720Z,0
2018-12-12T04:09:40.380Z,0
2018-12-12T04:10:49.063Z,0
2018-12-12T04:11:57.725Z,0
2018-12-12T04:13:06.398Z,0
2018-12-12T04:14:15.319Z,0
2018-12-12T04:15:24.272Z,0
2018-12-12T04:16:32.952Z,0
2018-12-12T04:17:41.622Z,0
2018-12-12T04:18:50.285Z,0
2018-12-12T04:19:58.967Z,0
2018-12-12T04:21:07.632Z,0
2018-12-12T04:22:16.303Z,0
2018-12-12T04:23:24.976Z,0
2018-12-12T04:24:33.645Z,0
2018-12-12T04:25:42.327Z,0
2018-12-12T04:26:50.992Z,0
2018-12-12T04:27:59.695Z,0
2018-12-12T04:29:08.361Z,0
2018-12-12T04:30:17.052Z,0
2018-12-12T04:31:25.714Z,0
2018-12-12T04:32:34.663Z,0
2018-12-12T04:33:43.409Z,0
2018-12-12T04:34:52.107Z,0
2018-12-12T04:36:00.779Z,0
2018-12-12T04:37:09.456Z,0
2018-12-12T04:38:18.166Z,0
2018-12-12T04:39:26.839Z,0
2018-12-12T04:40:35.531Z,0
2018-12-12T04:41:44.206Z,0
2018-12-12T04:42:52.904Z,0
2018-12-12T04:44:01.571Z,0
2018-12-12T04:45:10.255Z,0
2018-12-12T04:46:18.915Z,0
2018-12-12T04:47:27.591Z,0
2018-12-12T04:48:36.527Z,0
2018-12-12T04:49:45.202Z,0
2018-12-12T04:50:55.216Z,0
2018-12-12T04:52:03.916Z,0
2018-12-12T04:53:12.833Z,0
2018-12-12T04:54:21.507Z,0
2018-12-12T04:55:30.169Z,0
2018-12-12T04:56:38.853Z,0
2018-12-12T04:57:47.783Z,0
2018-12-12T04:58:56.450Z,0
2018-12-12T05:00:05.119Z,0
2018-12-12T05:01:13.782Z,0
2018-12-12T05:02:22.990Z,0
2018-12-12T05:03:32.167Z,0
2018-12-12T05:04:40.842Z,0
2018-12-12T05:05:49.776Z,0
2018-12-12T05:06:58.443Z,0
2018-12-12T05:08:07.112Z,0
2018-12-12T05:09:15.870Z,0
2018-12-12T05:10:24.541Z,0
2018-12-12T05:11:33.242Z,0
2018-12-12T05:12:41.920Z,0
2018-12-12T05:13:50.591Z,0
2018-12-12T05:14:59.271Z,0
2018-12-12T05:16:08.193Z,0
2018-12-12T05:17:16.856Z,0
2018-12-12T05:18:25.520Z,0
2018-12-12T05:19:34.188Z,0
2018-12-12T05:20:43.124Z,0
2018-12-12T05:21:51.791Z,0
2018-12-12T05:23:00.460Z,0
2018-12-12T05:24:09.129Z,0
2018-12-12T05:25:17.814Z,0
2018-12-12T05:26:26.743Z,0
2018-12-12T05:27:35.422Z,0
2018-12-12T05:28:44.335Z,0
2018-12-12T05:29:53.008Z,0
2018-12-12T05:31:01.686Z,0
2018-12-12T05:32:10.359Z,0
2018-12-12T05:33:19.022Z,0
2018-12-12T05:34:27.734Z,0
2018-12-12T05:35:36.414Z,0
2018-12-12T05:36:45.141Z,0
2018-12-12T05:37:58.889Z,0
2018-12-12T05:39:07.558Z,0
2018-12-12T05:40:16.482Z,0
2018-12-12T05:41:25.150Z,0
2018-12-12T05:42:33.820Z,0
2018-12-12T05:43:42.731Z,0
2018-12-12T05:44:51.402Z,0
2018-12-12T05:46:00.072Z,0
2018-12-12T05:47:08.752Z,0
2018-12-12T05:48:17.415Z,0
2018-12-12T05:49:26.086Z,0
2018-12-12T05:50:34.753Z,0
2018-12-12T05:51:43.422Z,0
2018-12-12T05:52:52.099Z,0
2018-12-12T05:54:00.768Z,0
2018-12-12T05:55:09.435Z,0
2018-12-12T05:56:20.766Z,0
2018-12-12T05:57:29.696Z,0
2018-12-12T05:58:38.383Z,0
2018-12-12T05:59:47.050Z,0
2018-12-12T06:00:56.629Z,0
2018-12-12T06:02:05.309Z,0
2018-12-12T06:03:13.973Z,0
2018-12-12T06:04:22.648Z,0
2018-12-12T06:05:31.307Z,0
2018-12-12T06:06:39.981Z,0
2018-12-12T06:07:49.833Z,0
2018-12-12T06:08:58.519Z,0
2018-12-12T06:10:07.186Z,0
2018-12-12T06:11:15.867Z,0
2018-12-12T06:12:24.577Z,0
2018-12-12T06:13:33.246Z,0
2018-12-12T06:14:41.923Z,0
2018-12-12T06:15:50.583Z,0
2018-12-12T06:16:59.253Z,0
2018-12-12T06:18:08.931Z,0
2018-12-12T06:19:17.615Z,0
2018-12-12T06:20:26.350Z,0
2018-12-12T06:21:35.019Z,0
2018-12-12T06:22:44.447Z,0
2018-12-12T06:23:53.374Z,0
2018-12-12T06:25:02.043Z,0
2018-12-12T06:26:10.990Z,0
2018-12-12T06:27:19.906Z,0
2018-12-12T06:28:28.975Z,0
2018-12-12T06:29:37.704Z,0
2018-12-12T06:30:46.363Z,0
2018-12-12T06:31:55.033Z,0
2018-12-12T06:33:03.697Z,0
2018-12-12T06:34:12.632Z,0
2018-12-12T06:35:21.322Z,0
2018-12-12T06:36:29.999Z,0
2018-12-12T06:37:38.661Z,0
2018-12-12T06:38:47.337Z,0
2018-12-12T06:39:55.997Z,0
2018-12-12T06:41:04.681Z,0
2018-12-12T06:42:13.345Z,0
2018-12-12T06:43:22.025Z,0
2018-12-12T06:44:30.695Z,0
2018-12-12T06:45:39.363Z,0
2018-12-12T06:46:48.022Z,0
2018-12-12T06:47:56.760Z,0
2018-12-12T06:49:05.435Z,0
2018-12-12T06:50:14.112Z,0
2018-12-12T06:51:22.779Z,0
2018-12-12T06:52:31.440Z,0
2018-12-12T06:53:40.108Z,0
2018-12-12T06:54:48.780Z,4
2018-12-12T06:55:57.453Z,4
2018-12-12T06:57:06.110Z,0
2018-12-12T06:58:14.777Z,0
2018-12-12T06:59:23.444Z,4
2018-12-12T07:00:32.109Z,0
2018-12-12T07:01:40.789Z,4
2018-12-12T07:02:49.473Z,4
2018-12-12T07:03:58.145Z,4
2018-12-12T07:05:06.808Z,4
2018-12-12T07:06:15.487Z,8
2018-12-12T07:07:24.164Z,8
2018-12-12T07:08:32.844Z,8
2018-12-12T07:09:41.886Z,8
2018-12-12T07:10:50.543Z,12
2018-12-12T07:11:59.214Z,12
2018-12-12T07:13:07.881Z,16
2018-12-12T07:14:16.571Z,16
2018-12-12T07:15:25.481Z,16
2018-12-12T07:16:34.156Z,20
2018-12-12T07:17:42.823Z,24
2018-12-12T07:18:51.498Z,24
2018-12-12T07:20:00.157Z,28
2018-12-12T07:21:08.822Z,32
2018-12-12T07:22:18.002Z,36
2018-12-12T07:23:26.684Z,40
2018-12-12T07:24:35.356Z,44
2018-12-12T07:25:44.013Z,44
2018-12-12T07:26:52.678Z,48
2018-12-12T07:28:01.349Z,56
2018-12-12T07:29:10.024Z,56
2018-12-12T07:30:18.694Z,64
2018-12-12T07:31:27.438Z,64
2018-12-12T07:32:36.099Z,72
2018-12-12T07:33:44.781Z,80
2018-12-12T07:34:53.448Z,84
2018-12-12T07:36:06.288Z,92
2018-12-12T07:37:14.948Z,96
2018-12-12T07:38:23.885Z,100
2018-12-12T07:39:32.799Z,104
2018-12-12T07:40:41.467Z,108
2018-12-12T07:41:50.139Z,112
2018-12-12T07:42:58.813Z,120
2018-12-12T07:44:07.479Z,124
2018-12-12T07:45:16.673Z,128
2018-12-12T07:46:25.682Z,136
2018-12-12T07:47:34.665Z,140
2018-12-12T07:48:43.336Z,144
2018-12-12T07:49:53.897Z,148
2018-12-12T07:51:02.575Z,156
2018-12-12T07:52:12.274Z,164
2018-12-12T07:53:21.028Z,176
2018-12-12T07:54:29.699Z,188
2018-12-12T07:55:38.375Z,192
2018-12-12T07:56:47.034Z,212
2018-12-12T07:57:55.705Z,228
2018-12-12T07:59:04.624Z,248
2018-12-12T08:00:13.319Z,260
2018-12-12T08:01:21.983Z,280
2018-12-12T08:02:30.658Z,296
2018-12-12T08:03:39.322Z,316
2018-12-12T08:04:47.985Z,336
2018-12-12T08:05:56.652Z,356
2018-12-12T08:07:05.321Z,380
2018-12-12T08:08:13.996Z,400
2018-12-12T08:09:22.669Z,416
2018-12-12T08:10:31.344Z,428
2018-12-12T08:11:40.028Z,440
2018-12-12T08:12:48.718Z,444
2018-12-12T08:13:57.374Z,448
2018-12-12T08:15:06.311Z,452
2018-12-12T08:16:14.979Z,448
2018-12-12T08:17:23.654Z,444
2018-12-12T08:18:32.319Z,444
2018-12-12T08:19:41.001Z,448
2018-12-12T08:20:49.666Z,452
2018-12-12T08:21:58.338Z,452
2018-12-12T08:23:07.025Z,452
2018-12-12T08:24:15.686Z,452
2018-12-12T08:25:24.366Z,472
2018-12-12T08:26:33.036Z,500
2018-12-12T08:27:41.704Z,536
2018-12-12T08:28:50.366Z,584
2018-12-12T08:29:59.131Z,632
2018-12-12T08:31:07.800Z,676
2018-12-12T08:32:16.552Z,704
2018-12-12T08:33:25.479Z,732
2018-12-12T08:34:34.152Z,772
2018-12-12T08:35:42.904Z,796
2018-12-12T08:36:51.670Z,808
2018-12-12T08:38:00.346Z,812
2018-12-12T08:39:09.018Z,816
2018-12-12T08:40:17.693Z,824
2018-12-12T08:41:26.367Z,836
2018-12-12T08:42:35.040Z,844
2018-12-12T08:43:43.707Z,856
2018-12-12T08:44:52.375Z,872
2018-12-12T08:46:01.037Z,900
2018-12-12T08:47:09.706Z,920
2018-12-12T08:48:18.375Z,924
2018-12-12T08:49:27.302Z,932
2018-12-12T08:50:35.964Z,948
2018-12-12T08:51:44.637Z,968
2018-12-12T08:52:53.304Z,992
2018-12-12T08:54:03.374Z,1012
2018-12-12T08:55:17.549Z,1040
2018-12-12T08:56:26.748Z,1080
2018-12-12T08:57:35.467Z,1088
2018-12-12T08:58:44.147Z,1076
2018-12-12T08:59:53.083Z,1076
2018-12-12T09:01:01.820Z,1080
2018-12-12T09:02:11.994Z,1092
2018-12-12T09:03:24.207Z,1100
2018-12-12T09:04:32.884Z,1116
2018-12-12T09:05:41.545Z,1128
2018-12-12T09:06:50.225Z,1156
2018-12-12T09:07:58.890Z,1172
2018-12-12T09:09:07.586Z,1200
2018-12-12T09:10:16.266Z,1248
2018-12-12T09:11:25.284Z,1320
2018-12-12T09:12:33.948Z,1396
2018-12-12T09:13:42.631Z,1464
2018-12-12T09:14:51.335Z,1512
2018-12-12T09:15:59.996Z,1496
2018-12-12T09:17:14.038Z,1460
2018-12-12T09:18:22.700Z,1448
2018-12-12T09:19:31.389Z,1484
2018-12-12T09:20:40.071Z,1540
2018-12-12T09:21:48.742Z,1576
2018-12-12T09:22:57.408Z,1584
2018-12-12T09:24:06.365Z,1592
2018-12-12T09:25:15.297Z,1620
2018-12-12T09:26:23.969Z,1632
2018-12-12T09:27:32.625Z,1624
2018-12-12T09:28:41.304Z,1584
2018-12-12T09:29:49.973Z,1568
2018-12-12T09:30:58.643Z,1572
2018-12-12T09:32:07.307Z,1568
2018-12-12T09:33:16.058Z,1552
2018-12-12T09:34:31.266Z,1520
2018-12-12T09:35:39.938Z,1496
2018-12-12T09:36:48.631Z,1476
2018-12-12T09:37:57.305Z,1456
2018-12-12T09:39:05.979Z,1436
2018-12-12T09:40:14.911Z,1448
2018-12-12T09:41:23.772Z,1476
2018-12-12T09:42:32.438Z,1480
2018-12-12T09:43:41.111Z,1480
2018-12-12T09:44:49.781Z,1488
2018-12-12T09:45:58.459Z,1500
2018-12-12T09:47:07.119Z,1508
2018-12-12T09:48:21.872Z,1512
2018-12-12T09:49:30.554Z,1524
2018-12-12T09:50:39.308Z,1556
2018-12-12T09:51:47.990Z,1592
2018-12-12T09:52:56.659Z,1616
2018-12-12T09:54:05.357Z,1648
2018-12-12T09:55:14.346Z,1704
2018-12-12T09:56:23.238Z,1752
2018-12-12T09:57:31.906Z,1780
2018-12-12T09:58:40.578Z,1796
2018-12-12T09:59:49.267Z,1824
2018-12-12T10:00:57.943Z,1872
2018-12-12T10:02:06.619Z,1916
2018-12-12T10:03:15.296Z,1940
2018-12-12T10:04:23.958Z,1952
2018-12-12T10:05:32.654Z,1940
2018-12-12T10:06:41.579Z,1928
2018-12-12T10:07:50.281Z,1920
2018-12-12T10:08:59.958Z,1932
2018-12-12T10:10:08.630Z,1960
2018-12-12T10:11:17.299Z,1976
2018-12-12T10:12:25.982Z,1984
2018-12-12T10:13:34.652Z,1988
2018-12-12T10:14:43.317Z,2000
2018-12-12T10:15:52.044Z,2004
2018-12-12T10:17:00.791Z,1996
2018-12-12T10:18:09.477Z,2000
2018-12-12T10:19:18.150Z,2000
2018-12-12T10:20:26.862Z,1996
2018-12-12T10:21:35.794Z,2012
2018-12-12T10:22:44.547Z,2024
2018-12-12T10:23:53.736Z,2056
2018-12-12T10:25:02.477Z,2092
2018-12-12T10:26:11.403Z,2128
2018-12-12T10:27:20.077Z,2132
2018-12-12T10:28:28.745Z,2124
2018-12-12T10:29:38.381Z,2132
2018-12-12T10:30:47.171Z,2152
2018-12-12T10:31:55.843Z,2184
2018-12-12T10:33:04.776Z,2200
2018-12-12T10:34:13.449Z,2204
2018-12-12T10:35:22.124Z,2208
2018-12-12T10:36:30.793Z,2216
2018-12-12T10:37:39.471Z,2232
2018-12-12T10:38:48.411Z,2268
2018-12-12T10:40:26.824Z,2316
2018-12-12T10:41:35.514Z,2324
2018-12-12T10:42:44.203Z,2356
2018-12-12T10:43:52.943Z,2408
2018-12-12T10:45:01.616Z,2420
2018-12-12T10:46:10.298Z,2412
2018-12-12T10:47:18.988Z,2364
2018-12-12T10:48:27.745Z,2272
2018-12-12T10:49:36.734Z,2136
2018-12-12T10:50:45.402Z,1992
2018-12-12T10:51:54.079Z,1884
2018-12-12T10:53:02.756Z,1836
2018-12-12T10:54:11.680Z,1792
2018-12-12T10:55:20.354Z,1772
2018-12-12T10:56:29.034Z,1812
2018-12-12T10:57:37.723Z,1792
2018-12-12T10:58:46.654Z,1860
2018-12-12T10:59:55.603Z,1820
2018-12-12T11:01:04.275Z,2000
2018-12-12T11:02:12.961Z,1832
2018-12-12T11:03:21.632Z,1956
2018-12-12T11:04:30.308Z,1948
2018-12-12T11:05:39.003Z,1912
2018-12-12T11:06:47.753Z,1844
2018-12-12T11:07:56.428Z,1848
2018-12-12T11:09:05.196Z,1864
2018-12-12T11:10:13.877Z,1892
2018-12-12T11:11:22.621Z,1932
2018-12-12T11:12:31.296Z,2028
2018-12-12T11:13:39.972Z,2028
2018-12-12T11:14:48.641Z,2328
2018-12-12T11:15:57.317Z,2012
2018-12-12T11:17:05.981Z,2072
2018-12-12T11:18:14.941Z,2260
2018-12-12T11:19:23.861Z,2088
2018-12-12T11:20:32.526Z,2064
2018-12-12T11:21:41.196Z,2072
2018-12-12T11:22:49.873Z,2092
2018-12-12T11:23:58.538Z,2068
2018-12-12T11:25:07.205Z,2044
2018-12-12T11:26:15.880Z,1984
2018-12-12T11:27:24.808Z,1892
2018-12-12T11:28:33.484Z,1856
2018-12-12T11:29:42.154Z,1860
2018-12-12T11:30:50.832Z,1812
2018-12-12T11:31:59.510Z,1744
2018-12-12T11:33:08.203Z,1700
2018-12-12T11:34:16.865Z,1716
2018-12-12T11:35:25.541Z,1808
2018-12-12T11:36:34.482Z,1784
2018-12-12T11:37:43.150Z,1812
2018-12-12T11:38:51.822Z,1872
2018-12-12T11:40:00.751Z,1940
2018-12-12T11:41:09.428Z,1980
2018-12-12T11:42:18.097Z,1992
2018-12-12T11:43:26.766Z,2028
2018-12-12T11:44:35.435Z,1956
2018-12-12T11:45:44.106Z,1864
2018-12-12T11:46:53.031Z,1892
2018-12-12T11:48:01.705Z,1944
2018-12-12T11:49:10.367Z,1900
2018-12-12T11:50:19.043Z,2000
2018-12-12T11:51:27.709Z,2032
2018-12-12T11:52:36.385Z,2056
2018-12-12T11:53:45.060Z,2140
2018-12-12T11:54:53.730Z,2404
2018-12-12T11:56:02.402Z,2444
2018-12-12T11:57:11.072Z,2472
2018-12-12T11:58:19.744Z,2448
2018-12-12T11:59:28.411Z,2472
2018-12-12T12:00:37.343Z,2316
2018-12-12T12:01:46.086Z,2188
2018-12-12T12:02:54.921Z,2044
2018-12-12T12:04:03.587Z,1996
2018-12-12T12:05:12.262Z,1992
2018-12-12T12:06:21.135Z,2148
2018-12-12T12:07:29.811Z,2008
2018-12-12T12:08:38.504Z,2100
2018-12-12T12:09:47.217Z,2188
2018-12-12T12:10:56.862Z,2116
2018-12-12T12:12:05.533Z,1988
2018-12-12T12:13:14.477Z,1748
2018-12-12T12:14:23.405Z,1532
2018-12-12T12:15:32.535Z,1460
2018-12-12T12:16:41.496Z,1536
2018-12-12T12:17:50.207Z,1580
2018-12-12T12:19:00.156Z,1736
2018-12-12T12:20:08.890Z,1848
2018-12-12T12:21:17.555Z,1920
2018-12-12T12:22:26.242Z,1992
2018-12-12T12:23:34.924Z,2020
2018-12-12T12:24:43.605Z,2000
2018-12-12T12:25:52.264Z,1988
2018-12-12T12:27:00.935Z,1916
2018-12-12T12:28:09.603Z,1864
2018-12-12T12:29:18.388Z,1888
2018-12-12T12:30:27.194Z,1924
2018-12-12T12:31:36.164Z,1916
2018-12-12T12:32:44.835Z,1892
2018-12-12T12:33:53.505Z,1896
2018-12-12T12:35:02.399Z,1884
2018-12-12T12:36:11.137Z,1848
2018-12-12T12:37:19.812Z,1844
2018-12-12T12:38:28.478Z,1828
2018-12-12T12:39:37.155Z,1792
2018-12-12T12:40:46.096Z,1764
2018-12-12T12:41:54.926Z,1740
2018-12-12T12:43:03.752Z,1688
2018-12-12T12:44:12.431Z,1600
2018-12-12T12:45:21.128Z,1524
2018-12-12T12:46:29.805Z,1492
2018-12-12T12:47:38.521Z,1512
2018-12-12T12:48:47.196Z,1536
2018-12-12T12:49:55.893Z,1524
2018-12-12T12:51:04.645Z,1504
2018-12-12T12:52:13.313Z,1492
2018-12-12T12:53:21.978Z,1504
2018-12-12T12:54:30.658Z,1536
2018-12-12T12:55:39.318Z,1588
2018-12-12T12:56:47.993Z,1652
2018-12-12T12:57:56.652Z,1704
2018-12-12T12:59:05.327Z,2016
2018-12-12T13:00:13.993Z,1848
2018-12-12T13:01:22.675Z,1596
2018-12-12T13:02:31.346Z,1808
2018-12-12T13:03:40.281Z,1576
2018-12-12T13:04:49.202Z,1520
2018-12-12T13:05:57.881Z,1520
2018-12-12T13:07:06.609Z,1508
2018-12-12T13:08:15.274Z,1524
2018-12-12T13:09:23.954Z,1692
2018-12-12T13:10:32.616Z,1868
2018-12-12T13:11:41.301Z,1876
2018-12-12T13:12:49.964Z,1884
2018-12-12T13:13:58.636Z,1900
2018-12-12T13:15:07.308Z,1896
2018-12-12T13:16:15.983Z,1796
2018-12-12T13:17:24.647Z,1564
2018-12-12T13:18:33.325Z,1584
2018-12-12T13:19:41.997Z,1676
2018-12-12T13:20:50.682Z,1792
2018-12-12T13:21:59.352Z,1664
2018-12-12T13:23:08.026Z,1708
2018-12-12T13:24:16.687Z,1752
2018-12-12T13:25:25.361Z,1868
2018-12-12T13:26:34.036Z,1900
2018-12-12T13:27:42.707Z,2036
2018-12-12T13:28:51.379Z,2180
2018-12-12T13:30:00.041Z,2248
2018-12-12T13:31:08.973Z,2312
2018-12-12T13:32:17.895Z,2340
2018-12-12T13:33:27.804Z,2308
2018-12-12T13:34:36.465Z,2176
2018-12-12T13:35:45.141Z,1860
2018-12-12T13:36:53.825Z,1980
2018-12-12T13:38:02.504Z,1904
2018-12-12T13:39:11.164Z,1860
2018-12-12T13:40:19.840Z,1772
2018-12-12T13:41:28.510Z,1732
2018-12-12T13:42:37.190Z,1572
2018-12-12T13:43:45.868Z,1536
2018-12-12T13:44:54.539Z,1480
2018-12-12T13:46:03.203Z,1452
2018-12-12T13:47:17.196Z,1328
2018-12-12T13:48:26.088Z,1280
2018-12-12T13:49:34.749Z,1232
2018-12-12T13:50:43.432Z,1304
2018-12-12T13:51:52.126Z,1340
2018-12-12T13:53:00.805Z,1328
2018-12-12T13:54:09.485Z,1316
2018-12-12T13:55:18.156Z,1304
2018-12-12T13:56:26.822Z,1288
2018-12-12T13:57:35.498Z,1264
2018-12-12T13:58:44.169Z,1256
2018-12-12T13:59:52.843Z,1232
2018-12-12T14:01:01.507Z,1232
2018-12-12T14:02:10.182Z,1216
2018-12-12T14:03:18.864Z,1200
2018-12-12T14:04:29.354Z,1180
2018-12-12T14:05:38.022Z,1168
2018-12-12T14:06:46.683Z,1160
2018-12-12T14:07:55.354Z,1140
2018-12-12T14:09:04.025Z,1128
2018-12-12T14:10:12.747Z,1120
2018-12-12T14:11:21.413Z,1108
2018-12-12T14:12:30.305Z,1092
2018-12-12T14:13:39.068Z,1080
2018-12-12T14:14:48.193Z,1064
2018-12-12T14:15:56.891Z,1044
2018-12-12T14:17:05.559Z,1024
2018-12-12T14:18:14.227Z,1004
2018-12-12T14:19:22.903Z,984
2018-12-12T14:20:31.584Z,972
2018-12-12T14:21:40.507Z,952
2018-12-12T14:22:49.223Z,936
2018-12-12T14:23:57.962Z,912
2018-12-12T14:25:07.159Z,884
2018-12-12T14:26:16.139Z,868
2018-12-12T14:27:24.807Z,860
2018-12-12T14:28:33.523Z,852
2018-12-12T14:29:42.201Z,836
2018-12-12T14:30:50.877Z,836
2018-12-12T14:31:59.547Z,836
2018-12-12T14:33:08.218Z,800
2018-12-12T14:34:16.890Z,720
2018-12-12T14:35:25.562Z,656
2018-12-12T14:36:34.231Z,632
2018-12-12T14:37:44.096Z,584
2018-12-12T14:38:52.763Z,564
2018-12-12T14:40:01.557Z,564
2018-12-12T14:41:10.320Z,572
2018-12-12T14:42:18.985Z,572
2018-12-12T14:43:27.649Z,548
2018-12-12T14:44:36.340Z,536
2018-12-12T14:45:45.005Z,504
2018-12-12T14:46:53.711Z,456
2018-12-12T14:48:02.379Z,412
2018-12-12T14:49:11.083Z,360
2018-12-12T14:50:19.753Z,324
2018-12-12T14:51:28.469Z,308
2018-12-12T14:52:37.142Z,308
2018-12-12T14:53:45.808Z,304
2018-12-12T14:54:54.513Z,308
2018-12-12T14:56:03.185Z,308
2018-12-12T14:57:11.860Z,336
2018-12-12T14:58:20.539Z,352
2018-12-12T14:59:29.213Z,352
2018-12-12T15:00:37.885Z,348
2018-12-12T15:01:46.551Z,336
2018-12-12T15:02:55.228Z,320
2018-12-12T15:04:03.900Z,308
2018-12-12T15:05:12.833Z,296
2018-12-12T15:06:21.510Z,280
2018-12-12T15:07:30.179Z,264
2018-12-12T15:08:39.115Z,248
2018-12-12T15:09:47.790Z,232
2018-12-12T15:10:56.453Z,224
2018-12-12T15:12:05.379Z,208
2018-12-12T15:13:14.369Z,192
2018-12-12T15:14:23.041Z,180
2018-12-12T15:15:31.715Z,164
2018-12-12T15:16:40.385Z,152
2018-12-12T15:17:49.050Z,140
2018-12-12T15:18:57.718Z,128
2018-12-12T15:20:06.393Z,120
2018-12-12T15:21:15.077Z,104
2018-12-12T15:22:23.746Z,96
2018-12-12T15:23:32.409Z,88
2018-12-12T15:24:42.021Z,76
2018-12-12T15:25:50.691Z,68
2018-12-12T15:26:59.360Z,64
2018-12-12T15:28:08.080Z,52
2018-12-12T15:29:16.752Z,48
2018-12-12T15:30:25.430Z,44
2018-12-12T15:31:34.106Z,36
2018-12-12T15:32:42.929Z,32
2018-12-12T15:33:51.601Z,28
2018-12-12T15:35:00.277Z,24
2018-12-12T15:36:09.009Z,20
2018-12-12T15:37:17.686Z,16
2018-12-12T15:38:26.355Z,16
2018-12-12T15:39:35.277Z,12
2018-12-12T15:40:43.958Z,12
2018-12-12T15:41:52.630Z,8
2018-12-12T15:43:01.297Z,4
2018-12-12T15:44:09.973Z,8
2018-12-12T15:45:18.638Z,4
2018-12-12T15:46:27.310Z,4
2018-12-12T15:47:35.977Z,4
2018-12-12T15:48:44.653Z,4
2018-12-12T15:49:53.315Z,0
2018-12-12T15:51:02.000Z,4
2018-12-12T15:52:10.665Z,4
2018-12-12T15:53:19.324Z,0
2018-12-12T15:54:28.252Z,0
2018-12-12T15:55:36.921Z,0
2018-12-12T15:56:45.598Z,0
2018-12-12T15:57:54.258Z,0
2018-12-12T15:59:02.993Z,0
2018-12-12T16:00:11.917Z,0
2018-12-12T16:01:20.601Z,0
2018-12-12T16:02:29.261Z,0
2018-12-12T16:03:37.944Z,0
2018-12-12T16:04:53.240Z,0
2018-12-12T16:06:01.921Z,0
2018-12-12T16:07:10.588Z,0
2018-12-12T16:08:19.512Z,0
2018-12-12T16:09:28.168Z,0
2018-12-12T16:10:36.843Z,0